Hayase Maru — JD2583 — position and weather

sailwx.info

Track history (hours):
 
Tides and Currents Weather Stations Pressure Air Temp Water Temp Dewpoint Dewpoint Depression Visibility Wind Speed Wind Dir Waves Ship Positions

Hayase Maru

Last reported at 2015-Jan-31 08:24 UTC. Time now 2015-Jan-31 08:36 UTC.
Position N 34°39' E 135°12'.

Length 73 m; draft 4.1 m.

Type: Ship. MMSI: 431000395.

Date/timePositionNaut miles runAvg speedWind from/ knotsBaromVisibWave heightAir tempDewpointWater temp
2015-Jan-31 08:24N 34°39' E 135°12'0 0.0
2015-Jan-31 07:30N 34°39' E 135°12'0 0.0
2015-Jan-31 06:30N 34°39' E 135°12'0 0.0
2015-Jan-31 05:24N 34°39' E 135°12'0 0.0
2015-Jan-31 04:30N 34°39' E 135°12'0 0.1
2015-Jan-31 03:31N 34°39' E 135°12'2 1.5
2015-Jan-31 02:20N 34°41' E 135°12'0 0.0
2015-Jan-31 01:32N 34°41' E 135°12'0 0.3
2015-Jan-31 00:33N 34°40' E 135°12'2 1.5
2015-Jan-30 23:32N 34°39' E 135°12'0 0.0
2015-Jan-30 22:32N 34°39' E 135°12'0 0.0
2015-Jan-30 21:26N 34°39' E 135°12'0 0.0
2015-Jan-30 20:20N 34°39' E 135°12'0 0.1
2015-Jan-30 19:32N 34°39' E 135°12'0 0.1
2015-Jan-30 18:32N 34°39' E 135°12'0 0.0
2015-Jan-30 17:26N 34°39' E 135°12'0 0.0
2015-Jan-30 16:26N 34°39' E 135°12'0 0.0
2015-Jan-30 15:32N 34°39' E 135°12'0 0.0
2015-Jan-30 14:20N 34°39' E 135°12'0 0.0
2015-Jan-30 13:32N 34°39' E 135°12'0 0.0
2015-Jan-30 12:32N 34°39' E 135°12'0 0.0
2015-Jan-30 11:32N 34°39' E 135°12'0 0.0
2015-Jan-30 10:32N 34°39' E 135°12'0 0.0
2015-Jan-30 09:26N 34°39' E 135°12'0 0.1
2015-Jan-30 08:32N 34°39' E 135°12'0 0.0
2015-Jan-30 07:32N 34°39' E 135°12'0 0.1
2015-Jan-30 06:32N 34°39' E 135°12'0 0.1
2015-Jan-30 05:32N 34°39' E 135°12'0 0.0
2015-Jan-30 04:32N 34°39' E 135°12'0 0.0
2015-Jan-30 03:32N 34°39' E 135°12'0 0.0
2015-Jan-30 02:32N 34°39' E 135°12'2 2.0
2015-Jan-30 01:33N 34°37' E 135°12'10 3.2
2015-Jan-29 22:33N 34°32' E 135°23'0 0.4
2015-Jan-29 21:27N 34°32' E 135°22'0 0.0
2015-Jan-29 16:27N 34°32' E 135°22'0 0.0
2015-Jan-29 15:33N 34°32' E 135°22'0 0.0
2015-Jan-29 13:11N 34°32' E 135°22'610.0
2015-Jan-29 12:33N 34°29' E 135°15'1211.5
2015-Jan-29 11:32N 34°21' E 135°04'1010.4
2015-Jan-29 10:33N 34°12' E 135°00'214 9.6
2015-Jan-28 12:23N 34°50' E 139°15'1311.8
2015-Jan-28 11:18N 34°58' E 139°28'912.3
2015-Jan-28 10:33N 35°04' E 139°36'1312.6
2015-Jan-28 09:33N 35°13' E 139°46'1211.8
2015-Jan-28 08:34N 35°25' E 139°43'6 6.0
2015-Jan-28 07:31N 35°23' E 139°51'0 0.0
2015-Jan-28 05:27N 35°23' E 139°51'0 0.0
2015-Jan-28 02:33N 35°23' E 139°51'0 0.0
2015-Jan-28 01:33N 35°23' E 139°51'0 0.0
2015-Jan-28 00:24N 35°23' E 139°51'0 0.0
2015-Jan-27 23:21N 35°23' E 139°51'0 0.0
2015-Jan-27 22:24N 35°23' E 139°51'0 0.1
2015-Jan-27 21:30N 35°23' E 139°51'3 1.9
2015-Jan-27 20:04N 35°22' E 139°54'0 0.0
2015-Jan-27 19:22N 35°22' E 139°54'0 0.0
2015-Jan-27 15:28N 35°22' E 139°54'0 0.0
2015-Jan-27 14:28N 35°22' E 139°54'0 0.0
2015-Jan-27 13:04N 35°22' E 139°54'0 0.0
2015-Jan-27 12:28N 35°22' E 139°54'0 0.0
2015-Jan-27 10:16N 35°22' E 139°54'0 0.0
2015-Jan-27 09:22N 35°22' E 139°54'0 0.0
2015-Jan-27 08:32N 35°22' E 139°54'0 0.2
2015-Jan-27 06:30N 35°22' E 139°53'0 0.0
2015-Jan-27 05:30N 35°22' E 139°53'4 0.2
2015-Jan-26 09:33N 35°25' E 139°50'13 1.8
2015-Jan-26 02:06N 35°37' E 139°57'911.8
2015-Jan-26 01:22N 35°30' E 139°51'911.6
2015-Jan-26 00:33N 35°24' E 139°42'3 3.1
2015-Jan-25 23:33N 35°23' E 139°38'0 0.4
2015-Jan-25 22:33N 35°23' E 139°39'1 1.2
2015-Jan-25 21:32N 35°23' E 139°40'0 0.0
2015-Jan-25 20:32N 35°23' E 139°40'0 0.0
2015-Jan-25 19:32N 35°23' E 139°40'0 0.0
2015-Jan-25 18:32N 35°23' E 139°40'0 0.0
2015-Jan-25 17:32N 35°23' E 139°40'0 0.0
2015-Jan-25 16:32N 35°23' E 139°40'0 0.0
2015-Jan-25 15:32N 35°23' E 139°40'0 0.0
2015-Jan-25 14:32N 35°23' E 139°40'0 0.0
2015-Jan-25 13:32N 35°23' E 139°40'0 0.0
2015-Jan-25 12:32N 35°23' E 139°40'0 0.0
2015-Jan-25 11:33N 35°23' E 139°40'10 9.9
2015-Jan-25 10:33N 35°15' E 139°47'1110.7
2015-Jan-25 09:33N 35°05' E 139°42'  
Track history (hours):
 
Tides and Currents Weather Stations Pressure Air Temp Water Temp Dewpoint Dewpoint Depression Visibility Wind Speed Wind Dir Waves Ship Positions

Hayase Maru

Last reported at 2015-Jan-31 08:24 UTC. Time now 2015-Jan-31 08:36 UTC.
Position N 34°39' E 135°12'.

Length 73 m; draft 4.1 m.

Type: Ship. MMSI: 431000395.

Date/timePositionNaut miles runAvg speedWind from/ knotsBaromVisibWave heightAir tempDewpointWater temp
2015-Jan-31 08:24N 34°39' E 135°12'0 0.0
2015-Jan-31 07:30N 34°39' E 135°12'0 0.0
2015-Jan-31 06:30N 34°39' E 135°12'0 0.0
2015-Jan-31 05:24N 34°39' E 135°12'0 0.0
2015-Jan-31 04:30N 34°39' E 135°12'0 0.1
2015-Jan-31 03:31N 34°39' E 135°12'2 1.5
2015-Jan-31 02:20N 34°41' E 135°12'0 0.0
2015-Jan-31 01:32N 34°41' E 135°12'0 0.3
2015-Jan-31 00:33N 34°40' E 135°12'2 1.5
2015-Jan-30 23:32N 34°39' E 135°12'0 0.0
2015-Jan-30 22:32N 34°39' E 135°12'0 0.0
2015-Jan-30 21:26N 34°39' E 135°12'0 0.0
2015-Jan-30 20:20N 34°39' E 135°12'0 0.1
2015-Jan-30 19:32N 34°39' E 135°12'0 0.1
2015-Jan-30 18:32N 34°39' E 135°12'0 0.0
2015-Jan-30 17:26N 34°39' E 135°12'0 0.0
2015-Jan-30 16:26N 34°39' E 135°12'0 0.0
2015-Jan-30 15:32N 34°39' E 135°12'0 0.0
2015-Jan-30 14:20N 34°39' E 135°12'0 0.0
2015-Jan-30 13:32N 34°39' E 135°12'0 0.0
2015-Jan-30 12:32N 34°39' E 135°12'0 0.0
2015-Jan-30 11:32N 34°39' E 135°12'0 0.0
2015-Jan-30 10:32N 34°39' E 135°12'0 0.0
2015-Jan-30 09:26N 34°39' E 135°12'0 0.1
2015-Jan-30 08:32N 34°39' E 135°12'0 0.0
2015-Jan-30 07:32N 34°39' E 135°12'0 0.1
2015-Jan-30 06:32N 34°39' E 135°12'0 0.1
2015-Jan-30 05:32N 34°39' E 135°12'0 0.0
2015-Jan-30 04:32N 34°39' E 135°12'0 0.0
2015-Jan-30 03:32N 34°39' E 135°12'0 0.0
2015-Jan-30 02:32N 34°39' E 135°12'2 2.0
2015-Jan-30 01:33N 34°37' E 135°12'10 3.2
2015-Jan-29 22:33N 34°32' E 135°23'0 0.4
2015-Jan-29 21:27N 34°32' E 135°22'0 0.0
2015-Jan-29 16:27N 34°32' E 135°22'0 0.0
2015-Jan-29 15:33N 34°32' E 135°22'0 0.0
2015-Jan-29 13:11N 34°32' E 135°22'610.0
2015-Jan-29 12:33N 34°29' E 135°15'1211.5
2015-Jan-29 11:32N 34°21' E 135°04'1010.4
2015-Jan-29 10:33N 34°12' E 135°00'214 9.6
2015-Jan-28 12:23N 34°50' E 139°15'1311.8
2015-Jan-28 11:18N 34°58' E 139°28'912.3
2015-Jan-28 10:33N 35°04' E 139°36'1312.6
2015-Jan-28 09:33N 35°13' E 139°46'1211.8
2015-Jan-28 08:34N 35°25' E 139°43'6 6.0
2015-Jan-28 07:31N 35°23' E 139°51'0 0.0
2015-Jan-28 05:27N 35°23' E 139°51'0 0.0
2015-Jan-28 02:33N 35°23' E 139°51'0 0.0
2015-Jan-28 01:33N 35°23' E 139°51'0 0.0
2015-Jan-28 00:24N 35°23' E 139°51'0 0.0
2015-Jan-27 23:21N 35°23' E 139°51'0 0.0
2015-Jan-27 22:24N 35°23' E 139°51'0 0.1
2015-Jan-27 21:30N 35°23' E 139°51'3 1.9
2015-Jan-27 20:04N 35°22' E 139°54'0 0.0
2015-Jan-27 19:22N 35°22' E 139°54'0 0.0
2015-Jan-27 15:28N 35°22' E 139°54'0 0.0
2015-Jan-27 14:28N 35°22' E 139°54'0 0.0
2015-Jan-27 13:04N 35°22' E 139°54'0 0.0
2015-Jan-27 12:28N 35°22' E 139°54'0 0.0
2015-Jan-27 10:16N 35°22' E 139°54'0 0.0
2015-Jan-27 09:22N 35°22' E 139°54'0 0.0
2015-Jan-27 08:32N 35°22' E 139°54'0 0.2
2015-Jan-27 06:30N 35°22' E 139°53'0 0.0
2015-Jan-27 05:30N 35°22' E 139°53'4 0.2
2015-Jan-26 09:33N 35°25' E 139°50'13 1.8
2015-Jan-26 02:06N 35°37' E 139°57'911.8
2015-Jan-26 01:22N 35°30' E 139°51'911.6
2015-Jan-26 00:33N 35°24' E 139°42'3 3.1
2015-Jan-25 23:33N 35°23' E 139°38'0 0.4
2015-Jan-25 22:33N 35°23' E 139°39'1 1.2
2015-Jan-25 21:32N 35°23' E 139°40'0 0.0
2015-Jan-25 20:32N 35°23' E 139°40'0 0.0
2015-Jan-25 19:32N 35°23' E 139°40'0 0.0
2015-Jan-25 18:32N 35°23' E 139°40'0 0.0
2015-Jan-25 17:32N 35°23' E 139°40'0 0.0
2015-Jan-25 16:32N 35°23' E 139°40'0 0.0
2015-Jan-25 15:32N 35°23' E 139°40'0 0.0
2015-Jan-25 14:32N 35°23' E 139°40'0 0.0
2015-Jan-25 13:32N 35°23' E 139°40'0 0.0
2015-Jan-25 12:32N 35°23' E 139°40'0 0.0
2015-Jan-25 11:33N 35°23' E 139°40'10 9.9
2015-Jan-25 10:33N 35°15' E 139°47'1110.7
2015-Jan-25 09:33N 35°05' E 139°42'  

Dump ship's entire track history